createdAt,value
2019-01-20T00:00:15.315Z,97646.26
2019-01-20T00:02:47.858Z,97647.98
2019-01-20T00:05:20.718Z,97648.48
2019-01-20T00:07:53.255Z,97644.91
2019-01-20T00:10:25.828Z,97641.70
2019-01-20T00:12:58.251Z,97639.33
2019-01-20T00:15:30.727Z,97641.33
2019-01-20T00:18:03.253Z,97642.74
2019-01-20T00:20:35.724Z,97636.50
2019-01-20T00:23:08.264Z,97634.98
2019-01-20T00:25:40.733Z,97636.45
2019-01-20T00:28:13.366Z,97637.20
2019-01-20T00:30:45.749Z,97630.44
2019-01-20T00:33:18.083Z,97636.19
2019-01-20T00:35:50.469Z,97634.53
2019-01-20T00:38:23.147Z,97642.28
2019-01-20T00:40:56.451Z,97637.58
2019-01-20T00:43:28.934Z,97638.73
2019-01-20T00:46:01.696Z,97642.59
2019-01-20T00:48:34.063Z,97640.75
2019-01-20T00:51:06.737Z,97640.94
2019-01-20T00:53:39.211Z,97640.14
2019-01-20T00:56:11.836Z,97636.97
2019-01-20T00:58:44.215Z,97634.23
2019-01-20T01:01:16.809Z,97634.36
2019-01-20T01:03:49.282Z,97639.53
2019-01-20T01:06:22.165Z,97635.17
2019-01-20T01:08:54.653Z,97639.57
2019-01-20T01:11:31.591Z,97633.55
2019-01-20T01:14:01.349Z,97637.34
2019-01-20T01:16:33.831Z,97636.63
2019-01-20T01:19:06.406Z,97645.35
2019-01-20T01:21:39.602Z,97647.33
2019-01-20T01:24:12.074Z,97648.27
2019-01-20T01:26:44.552Z,97645.83
2019-01-20T01:29:17.028Z,97645.86
2019-01-20T01:31:49.407Z,97648.52
2019-01-20T01:34:21.864Z,97650.31
2019-01-20T01:36:54.358Z,97646.42
2019-01-20T01:39:26.933Z,97644.45
2019-01-20T01:41:59.318Z,97644.35
2019-01-20T01:44:31.700Z,97645.14
2019-01-20T01:47:04.181Z,97640.56
2019-01-20T01:49:36.658Z,97637.98
2019-01-20T01:52:09.340Z,97633.65
2019-01-20T01:54:41.872Z,97635.37
2019-01-20T01:57:14.351Z,97632.55
2019-01-20T01:59:46.828Z,97633.53
2019-01-20T02:02:19.422Z,97627.61
2019-01-20T02:04:51.788Z,97630.71
2019-01-20T02:07:24.359Z,97629.36
2019-01-20T02:09:56.841Z,97631.55
2019-01-20T02:12:29.418Z,97627.41
2019-01-20T02:15:01.998Z,97625.81
2019-01-20T02:17:34.471Z,97632.16
2019-01-20T02:20:09.168Z,97630.96
2019-01-20T02:22:41.745Z,97635.67
2019-01-20T02:25:15.726Z,97637.64
2019-01-20T02:27:48.402Z,97635.25
2019-01-20T02:30:24.601Z,97640.99
2019-01-20T02:32:57.067Z,97626.15
2019-01-20T02:35:29.745Z,97628.86
2019-01-20T02:38:02.228Z,97629.23
2019-01-20T02:40:34.801Z,97627.23
2019-01-20T02:43:07.380Z,97627.98
2019-01-20T02:45:39.746Z,97624.44
2019-01-20T02:48:12.226Z,97627.98
2019-01-20T02:50:44.803Z,97628.10
2019-01-20T02:53:17.293Z,97628.25
2019-01-20T02:55:49.773Z,97629.39
2019-01-20T02:58:22.256Z,97628.73
2019-01-20T03:00:54.739Z,97633.49
2019-01-20T03:03:27.227Z,97628.56
2019-01-20T03:05:59.702Z,97627.42
2019-01-20T03:08:32.171Z,97627.28
2019-01-20T03:11:04.646Z,97628.53
2019-01-20T03:13:37.135Z,97627.40
2019-01-20T03:16:09.817Z,97630.53
2019-01-20T03:18:42.400Z,97632.31
2019-01-20T03:21:14.872Z,97630.64
2019-01-20T03:23:47.252Z,97626.17
2019-01-20T03:26:19.720Z,97626.64
2019-01-20T03:28:52.192Z,97630.33
2019-01-20T03:31:24.669Z,97626.10
2019-01-20T03:33:57.185Z,97630.33
2019-01-20T03:36:29.763Z,97631.27
2019-01-20T03:39:02.255Z,97629.39
2019-01-20T03:41:34.632Z,97624.41
2019-01-20T03:44:07.783Z,97627.87
2019-01-20T03:46:40.194Z,97625.86
2019-01-20T03:49:12.670Z,97628.70
2019-01-20T03:51:45.138Z,97630.59
2019-01-20T03:54:17.717Z,97626.85
2019-01-20T03:56:50.347Z,97629.97
2019-01-20T03:59:22.913Z,97627.50
2019-01-20T04:01:55.481Z,97622.94
2019-01-20T04:04:27.864Z,97621.92
2019-01-20T04:07:00.335Z,97617.70
2019-01-20T04:09:32.811Z,97617.41
2019-01-20T04:12:05.306Z,97613.59
2019-01-20T04:14:37.686Z,97618.27
2019-01-20T04:17:10.156Z,97621.14
2019-01-20T04:19:42.532Z,97620.53
2019-01-20T04:22:14.901Z,97618.50
2019-01-20T04:24:47.283Z,97617.41
2019-01-20T04:27:19.710Z,97612.34
2019-01-20T04:29:52.037Z,97611.62
2019-01-20T04:32:24.405Z,97607.18
2019-01-20T04:34:56.768Z,97608.23
2019-01-20T04:37:29.138Z,97610.78
2019-01-20T04:40:01.724Z,97615.48
2019-01-20T04:42:34.209Z,97617.31
2019-01-20T04:45:08.908Z,97611.19
2019-01-20T04:47:41.488Z,97611.55
2019-01-20T04:50:17.366Z,97617.77
2019-01-20T04:52:49.974Z,97621.06
2019-01-20T04:55:22.572Z,97621.90
2019-01-20T04:57:55.872Z,97617.72
2019-01-20T05:00:29.930Z,97623.25
2019-01-20T05:03:02.500Z,97626.48
2019-01-20T05:05:34.874Z,97628.34
2019-01-20T05:08:07.649Z,97629.52
2019-01-20T05:10:40.218Z,97631.06
2019-01-20T05:13:12.607Z,97629.69
2019-01-20T05:15:45.090Z,97630.99
2019-01-20T05:18:17.464Z,97637.12
2019-01-20T05:20:50.088Z,97637.96
2019-01-20T05:23:22.562Z,97638.63
2019-01-20T05:25:55.042Z,97634.17
2019-01-20T05:28:27.428Z,97637.48
2019-01-20T05:30:59.909Z,97636.00
2019-01-20T05:33:32.278Z,97641.48
2019-01-20T05:36:04.857Z,97637.64
2019-01-20T05:38:37.340Z,97642.32
2019-01-20T05:41:09.725Z,97641.17
2019-01-20T05:43:42.204Z,97643.25
2019-01-20T05:46:14.695Z,97648.59
2019-01-20T05:48:47.051Z,97653.59
2019-01-20T05:51:19.433Z,97657.25
2019-01-20T05:53:51.915Z,97654.09
2019-01-20T05:56:24.281Z,97645.66
2019-01-20T05:58:56.653Z,97654.75
2019-01-20T06:01:29.259Z,97648.66
2019-01-20T06:04:01.636Z,97649.59
2019-01-20T06:06:34.125Z,97645.99
2019-01-20T06:09:09.109Z,97645.82
2019-01-20T06:11:41.578Z,97649.16
2019-01-20T06:14:13.965Z,97652.45
2019-01-20T06:16:46.444Z,97650.06
2019-01-20T06:19:18.782Z,97653.32
2019-01-20T06:21:51.262Z,97654.69
2019-01-20T06:24:23.591Z,97656.67
2019-01-20T06:26:56.086Z,97657.44
2019-01-20T06:29:28.463Z,97664.46
2019-01-20T06:32:00.845Z,97666.59
2019-01-20T06:34:33.227Z,97662.55
2019-01-20T06:37:05.724Z,97672.94
2019-01-20T06:39:38.300Z,97670.73
2019-01-20T06:42:10.785Z,97675.45
2019-01-20T06:44:43.173Z,97677.71
2019-01-20T06:47:15.654Z,97682.73
2019-01-20T06:49:48.128Z,97675.41
2019-01-20T06:52:20.501Z,97679.23
2019-01-20T06:54:52.933Z,97679.92
2019-01-20T06:57:25.418Z,97685.49
2019-01-20T06:59:57.791Z,97685.23
2019-01-20T07:02:30.276Z,97688.86
2019-01-20T07:05:02.657Z,97686.59
2019-01-20T07:07:35.138Z,97696.80
2019-01-20T07:10:08.734Z,97692.31
2019-01-20T07:12:41.115Z,97694.70
2019-01-20T07:15:17.365Z,97692.95
2019-01-20T07:17:50.040Z,97690.47
2019-01-20T07:20:22.842Z,97690.08
2019-01-20T07:22:55.319Z,97695.91
2019-01-20T07:25:27.760Z,97695.03
2019-01-20T07:28:00.232Z,97697.58
2019-01-20T07:30:32.717Z,97698.55
2019-01-20T07:33:05.888Z,97700.20
2019-01-20T07:35:38.367Z,97703.66
2019-01-20T07:38:10.856Z,97706.41
2019-01-20T07:40:43.230Z,97699.23
2019-01-20T07:43:17.078Z,97694.20
2019-01-20T07:45:49.615Z,97702.18
2019-01-20T07:48:22.091Z,97700.16
2019-01-20T07:50:54.466Z,97703.00
2019-01-20T07:53:27.043Z,97702.29
2019-01-20T07:55:59.622Z,97707.44
2019-01-20T07:58:32.198Z,97716.98
2019-01-20T08:01:04.737Z,97722.40
2019-01-20T08:03:37.323Z,97721.01
2019-01-20T08:06:09.818Z,97726.09
2019-01-20T08:08:42.305Z,97723.98
2019-01-20T08:11:14.682Z,97722.30
2019-01-20T08:13:47.079Z,97720.88
2019-01-20T08:16:19.749Z,97730.16
2019-01-20T08:18:52.140Z,97726.08
2019-01-20T08:21:24.513Z,97734.09
2019-01-20T08:23:56.991Z,97725.86
2019-01-20T08:26:29.463Z,97715.58
2019-01-20T08:29:01.748Z,97713.95
2019-01-20T08:31:34.089Z,97718.12
2019-01-20T08:34:06.514Z,97712.83
2019-01-20T08:36:38.827Z,97709.81
2019-01-20T08:39:13.972Z,97709.08
2019-01-20T08:41:46.808Z,97704.41
2019-01-20T08:44:19.282Z,97703.34
2019-01-20T08:47:19.117Z,97705.37
2019-01-20T08:49:55.391Z,97702.32
2019-01-20T08:52:34.385Z,97702.59
2019-01-20T08:55:12.249Z,97710.40
2019-01-20T08:57:47.456Z,97715.80
2019-01-20T09:00:20.508Z,97718.17
2019-01-20T09:02:52.746Z,97722.22
2019-01-20T09:05:25.184Z,97727.19
2019-01-20T09:07:57.538Z,97730.95
2019-01-20T09:10:30.654Z,97736.69
2019-01-20T09:13:07.904Z,97736.70
2019-01-20T09:15:40.764Z,97736.29
2019-01-20T09:18:13.350Z,97738.13
2019-01-20T09:20:45.794Z,97742.70
2019-01-20T09:23:18.239Z,97746.77
2019-01-20T09:25:50.706Z,97755.00
2019-01-20T09:28:29.772Z,97771.67
2019-01-20T09:31:02.460Z,97774.70
2019-01-20T09:33:34.793Z,97775.61
2019-01-20T09:36:07.633Z,97783.41
2019-01-20T09:38:40.180Z,97784.77
2019-01-20T09:41:12.673Z,97789.18
2019-01-20T09:43:47.404Z,97786.42
2019-01-20T09:46:19.047Z,97789.66
2019-01-20T09:48:51.427Z,97789.44
2019-01-20T09:51:23.826Z,97793.02
2019-01-20T09:53:56.498Z,97794.73
2019-01-20T09:56:28.913Z,97795.81
2019-01-20T09:59:01.494Z,97796.27
2019-01-20T10:01:34.128Z,97796.16
2019-01-20T10:04:06.808Z,97801.56
2019-01-20T10:06:39.389Z,97794.83
2019-01-20T10:09:11.992Z,97794.95
2019-01-20T10:11:44.386Z,97798.58
2019-01-20T10:14:17.016Z,97791.05
2019-01-20T10:16:49.453Z,97794.16
2019-01-20T10:19:21.989Z,97790.31
2019-01-20T10:21:54.472Z,97793.27
2019-01-20T10:24:26.933Z,97796.89
2019-01-20T10:26:59.427Z,97798.80
2019-01-20T10:29:31.831Z,97795.84
2019-01-20T10:32:04.317Z,97790.02
2019-01-20T10:34:36.982Z,97790.67
2019-01-20T10:37:09.663Z,97792.23
2019-01-20T10:39:42.137Z,97791.68
2019-01-20T10:42:14.723Z,97790.33
2019-01-20T10:44:47.204Z,97794.23
2019-01-20T10:47:19.586Z,97788.14
2019-01-20T10:49:51.954Z,97787.00
2019-01-20T10:52:24.827Z,97787.41
2019-01-20T10:54:57.341Z,97789.06
2019-01-20T10:57:30.192Z,97785.53
2019-01-20T11:00:02.753Z,97785.23
2019-01-20T11:02:35.170Z,97786.61
2019-01-20T11:05:08.161Z,97783.90
2019-01-20T11:07:40.485Z,97788.80
2019-01-20T11:10:13.230Z,97787.17
2019-01-20T11:12:45.676Z,97782.09
2019-01-20T11:15:18.424Z,97787.56
2019-01-20T11:17:50.829Z,97781.16
2019-01-20T11:20:23.610Z,97780.91
2019-01-20T11:22:55.929Z,97784.78
2019-01-20T11:25:32.278Z,97782.53
2019-01-20T11:28:04.972Z,97779.97
2019-01-20T11:30:37.706Z,97779.62
2019-01-20T11:33:10.222Z,97780.42
2019-01-20T11:35:42.535Z,97776.13
2019-01-20T11:38:14.755Z,97775.09
2019-01-20T11:40:46.963Z,97777.20
2019-01-20T11:43:19.175Z,97782.55
2019-01-20T11:45:51.821Z,97776.13
2019-01-20T11:48:24.359Z,97783.23
2019-01-20T11:50:56.563Z,97774.48
2019-01-20T11:53:28.874Z,97772.70
2019-01-20T11:56:01.081Z,97771.17
2019-01-20T11:58:33.294Z,97771.95
2019-01-20T12:01:05.711Z,97771.98
2019-01-20T12:03:38.120Z,97774.25
2019-01-20T12:06:10.533Z,97775.06
2019-01-20T12:08:42.849Z,97769.56
2019-01-20T12:11:15.285Z,97769.29
2019-01-20T12:13:47.603Z,97758.50
2019-01-20T12:16:19.936Z,97754.27
2019-01-20T12:18:52.145Z,97748.81
2019-01-20T12:21:24.465Z,97753.25
2019-01-20T12:23:56.964Z,97752.66
2019-01-20T12:26:29.370Z,97754.38
2019-01-20T12:29:01.584Z,97752.52
2019-01-20T12:31:33.793Z,97756.06
2019-01-20T12:34:06.306Z,97757.39
2019-01-20T12:36:38.635Z,97752.94
2019-01-20T12:39:11.244Z,97757.07
2019-01-20T12:41:43.507Z,97752.11
2019-01-20T12:44:15.718Z,97749.98
2019-01-20T12:46:48.117Z,97737.61
2019-01-20T12:49:20.591Z,97733.21
2019-01-20T12:51:52.903Z,97722.11
2019-01-20T12:54:25.518Z,97724.56
2019-01-20T12:56:58.084Z,97724.63
2019-01-20T12:59:30.693Z,97720.61
2019-01-20T13:02:03.015Z,97720.04
2019-01-20T13:04:35.491Z,97729.30
2019-01-20T13:07:08.011Z,97731.09
2019-01-20T13:09:40.649Z,97726.16
2019-01-20T13:12:13.076Z,97725.67
2019-01-20T13:14:45.441Z,97726.77
2019-01-20T13:17:17.959Z,97727.48
2019-01-20T13:19:50.432Z,97722.13
2019-01-20T13:22:22.857Z,97723.50
2019-01-20T13:24:55.330Z,97721.63
2019-01-20T13:27:27.755Z,97718.17
2019-01-20T13:30:00.287Z,97716.39
2019-01-20T13:32:32.819Z,97719.14
2019-01-20T13:35:05.871Z,97725.70
2019-01-20T13:37:39.478Z,97731.59
2019-01-20T13:40:16.966Z,97729.69
2019-01-20T13:42:49.208Z,97727.70
2019-01-20T13:45:21.756Z,97727.11
2019-01-20T13:47:54.120Z,97738.69
2019-01-20T13:50:26.702Z,97735.27
2019-01-20T13:52:59.257Z,97734.32
2019-01-20T13:55:31.731Z,97740.52
2019-01-20T13:58:04.096Z,97739.49
2019-01-20T14:00:36.718Z,97735.26
2019-01-20T14:03:09.280Z,97739.31
2019-01-20T14:05:41.588Z,97733.39
2019-01-20T14:08:13.901Z,97741.70
2019-01-20T14:10:46.316Z,97742.59
2019-01-20T14:13:18.529Z,97753.06
2019-01-20T14:15:50.945Z,97760.46
2019-01-20T14:18:23.151Z,97768.44
2019-01-20T14:20:55.365Z,97771.47
2019-01-20T14:23:27.686Z,97780.42
2019-01-20T14:25:59.899Z,97782.03
2019-01-20T14:28:32.110Z,97782.05
2019-01-20T14:31:04.517Z,97793.67
2019-01-20T14:33:36.940Z,97792.80
2019-01-20T14:36:09.454Z,97797.91
2019-01-20T14:38:41.654Z,97803.05
2019-01-20T14:41:14.069Z,97801.08
2019-01-20T14:43:46.390Z,97805.31
2019-01-20T14:46:18.607Z,97808.02
2019-01-20T14:48:50.952Z,97809.28
2019-01-20T14:51:23.378Z,97811.39
2019-01-20T14:53:56.047Z,97814.58
2019-01-20T14:56:28.566Z,97820.39
2019-01-20T14:59:01.072Z,97820.08
2019-01-20T15:01:33.649Z,97824.94
2019-01-20T15:04:06.438Z,97828.30
2019-01-20T15:06:38.815Z,97827.73
2019-01-20T15:09:11.610Z,97834.58
2019-01-20T15:11:43.991Z,97838.62
2019-01-20T15:14:16.469Z,97840.31
2019-01-20T15:16:48.845Z,97841.80
2019-01-20T15:19:21.889Z,97842.91
2019-01-20T15:21:54.415Z,97842.74
2019-01-20T15:24:31.218Z,97847.80
2019-01-20T15:27:00.939Z,97850.84
2019-01-20T15:29:33.620Z,97852.27
2019-01-20T15:32:06.505Z,97851.23
2019-01-20T15:34:38.999Z,97849.41
2019-01-20T15:37:11.488Z,97861.33
2019-01-20T15:39:43.993Z,97865.77
2019-01-20T15:42:16.378Z,97867.28
2019-01-20T15:44:48.755Z,97868.45
2019-01-20T15:47:21.239Z,97873.16
2019-01-20T15:49:53.824Z,97875.30
2019-01-20T15:52:26.201Z,97876.22
2019-01-20T15:54:58.779Z,97880.64
2019-01-20T15:57:31.364Z,97880.48
2019-01-20T16:00:04.192Z,97881.86
2019-01-20T16:02:36.777Z,97884.65
2019-01-20T16:05:09.606Z,97888.08
2019-01-20T16:07:42.198Z,97890.93
2019-01-20T16:10:16.219Z,97890.56
2019-01-20T16:12:49.384Z,97892.77
2019-01-20T16:15:25.268Z,97890.89
2019-01-20T16:17:58.725Z,97894.24
2019-01-20T16:20:33.174Z,97893.20
2019-01-20T16:23:08.181Z,97896.38
2019-01-20T16:25:41.184Z,97900.52
2019-01-20T16:28:14.369Z,97906.37
2019-01-20T16:30:46.954Z,97908.62
2019-01-20T16:33:24.814Z,97906.64
2019-01-20T16:35:53.632Z,97912.09
2019-01-20T16:38:26.105Z,97914.85
2019-01-20T16:40:58.587Z,97912.79
2019-01-20T16:43:30.972Z,97916.89
2019-01-20T16:46:03.450Z,97915.98
2019-01-20T16:48:35.824Z,97915.39
2019-01-20T16:51:08.312Z,97918.65
2019-01-20T16:53:40.702Z,97923.80
2019-01-20T16:56:13.413Z,97927.96
2019-01-20T16:58:51.347Z,97929.83
2019-01-20T17:01:21.507Z,97928.58
2019-01-20T17:03:54.083Z,97927.22
2019-01-20T17:06:26.562Z,97935.33
2019-01-20T17:08:59.037Z,97937.02
2019-01-20T17:11:31.523Z,97938.19
2019-01-20T17:14:04.108Z,97939.48
2019-01-20T17:16:36.586Z,97941.23
2019-01-20T17:19:09.170Z,97948.53
2019-01-20T17:21:41.551Z,97946.89
2019-01-20T17:24:14.031Z,97946.95
2019-01-20T17:26:46.608Z,97948.22
2019-01-20T17:29:18.984Z,97954.84
2019-01-20T17:31:51.361Z,97956.22
2019-01-20T17:34:23.847Z,97958.01
2019-01-20T17:36:56.416Z,97960.45
2019-01-20T17:39:28.895Z,97965.23
2019-01-20T17:42:01.286Z,97963.94
2019-01-20T17:44:33.965Z,97969.15
2019-01-20T17:47:06.543Z,97972.38
2019-01-20T17:49:38.927Z,97974.06
2019-01-20T17:52:11.544Z,97974.06
2019-01-20T17:54:43.922Z,97976.75
2019-01-20T17:57:16.298Z,97984.89
2019-01-20T17:59:48.720Z,97985.23
2019-01-20T18:02:21.095Z,97986.47
2019-01-20T18:04:53.770Z,97986.36
2019-01-20T18:07:26.247Z,97986.83
2019-01-20T18:09:58.723Z,97991.85
2019-01-20T18:12:31.048Z,97989.78
2019-01-20T18:15:03.637Z,97994.71
2019-01-20T18:17:35.974Z,97993.77
2019-01-20T18:20:12.442Z,97995.81
2019-01-20T18:22:45.300Z,98000.50
2019-01-20T18:25:18.994Z,97998.03
2019-01-20T18:27:51.681Z,97998.73
2019-01-20T18:30:26.549Z,98001.75
2019-01-20T18:32:59.219Z,98004.91
2019-01-20T18:35:31.907Z,98005.76
2019-01-20T18:38:04.579Z,98008.89
2019-01-20T18:40:55.230Z,98009.95
2019-01-20T18:44:06.658Z,98013.02
2019-01-20T18:46:39.266Z,98018.77
2019-01-20T18:49:11.746Z,98015.55
2019-01-20T18:51:44.324Z,98015.71
2019-01-20T18:54:16.855Z,98017.96
2019-01-20T18:56:49.217Z,98021.41
2019-01-20T18:59:21.647Z,98019.45
2019-01-20T19:01:54.032Z,98026.67
2019-01-20T19:04:26.463Z,98024.44
2019-01-20T19:06:59.049Z,98028.72
2019-01-20T19:09:31.710Z,98030.66
2019-01-20T19:12:04.580Z,98034.85
2019-01-20T19:14:37.027Z,98038.50
2019-01-20T19:17:09.525Z,98040.03
2019-01-20T19:19:41.946Z,98040.69
2019-01-20T19:22:14.993Z,98048.42
2019-01-20T19:24:47.454Z,98051.00
2019-01-20T19:27:19.941Z,98053.27
2019-01-20T19:29:52.269Z,98058.20
2019-01-20T19:32:24.743Z,98056.06
2019-01-20T19:34:57.271Z,98058.28
2019-01-20T19:37:29.744Z,98062.92
2019-01-20T19:40:02.196Z,98057.08
2019-01-20T19:42:34.781Z,98062.98
2019-01-20T19:45:10.478Z,98063.91
2019-01-20T19:47:43.074Z,98069.77
2019-01-20T19:50:16.303Z,98069.83
2019-01-20T19:52:48.888Z,98069.57
2019-01-20T19:55:33.954Z,98074.06
2019-01-20T19:58:06.848Z,98074.78
2019-01-20T20:00:39.472Z,98072.94
2019-01-20T20:03:15.063Z,98075.16
2019-01-20T20:05:47.749Z,98073.22
2019-01-20T20:08:20.395Z,98077.28
2019-01-20T20:10:52.974Z,98075.83
2019-01-20T20:13:25.457Z,98078.05
2019-01-20T20:15:57.787Z,98089.10
2019-01-20T20:18:30.162Z,98094.36
2019-01-20T20:21:02.486Z,98089.30
2019-01-20T20:23:34.969Z,98095.06
2019-01-20T20:26:07.655Z,98096.19
2019-01-20T20:28:40.136Z,98104.76
2019-01-20T20:31:12.614Z,98104.72
2019-01-20T20:33:45.086Z,98105.88
2019-01-20T20:36:17.563Z,98106.96
2019-01-20T20:38:50.039Z,98109.71
2019-01-20T20:41:22.517Z,98114.91
2019-01-20T20:43:54.896Z,98113.78
2019-01-20T20:46:30.706Z,98115.22
2019-01-20T20:49:01.492Z,98118.92
2019-01-20T20:51:33.965Z,98116.64
2019-01-20T20:54:06.641Z,98123.88
2019-01-20T20:56:39.180Z,98117.77
2019-01-20T20:59:11.699Z,98124.29
2019-01-20T21:01:44.271Z,98131.73
2019-01-20T21:04:16.747Z,98134.48
2019-01-20T21:06:49.217Z,98138.68
2019-01-20T21:09:21.688Z,98144.20
2019-01-20T21:11:54.074Z,98145.20
2019-01-20T21:14:26.924Z,98146.28
2019-01-20T21:16:59.530Z,98146.52
2019-01-20T21:19:31.893Z,98148.67
2019-01-20T21:22:04.274Z,98150.30
2019-01-20T21:24:36.656Z,98149.38
2019-01-20T21:27:09.336Z,98156.95
2019-01-20T21:29:41.720Z,98161.52
2019-01-20T21:32:14.194Z,98159.13
2019-01-20T21:34:46.570Z,98162.52
2019-01-20T21:37:19.055Z,98160.40
2019-01-20T21:39:51.538Z,98156.16
2019-01-20T21:42:23.913Z,98151.95
2019-01-20T21:44:56.306Z,98153.37
2019-01-20T21:47:28.691Z,98156.31
2019-01-20T21:50:01.067Z,98152.52
2019-01-20T21:52:33.450Z,98155.82
2019-01-20T21:55:06.280Z,98159.62
2019-01-20T21:57:38.910Z,98160.03
2019-01-20T22:00:15.695Z,98168.30
2019-01-20T22:02:48.378Z,98170.77
2019-01-20T22:05:20.956Z,98173.83
2019-01-20T22:07:53.529Z,98180.71
2019-01-20T22:10:26.439Z,98180.22
2019-01-20T22:12:58.911Z,98179.86
2019-01-20T22:15:31.494Z,98183.71
2019-01-20T22:18:03.967Z,98190.95
2019-01-20T22:20:36.543Z,98192.33
2019-01-20T22:23:09.218Z,98188.30
2019-01-20T22:25:41.708Z,98190.50
2019-01-20T22:28:14.089Z,98196.00
2019-01-20T22:30:46.466Z,98194.75
2019-01-20T22:33:18.859Z,98192.22
2019-01-20T22:35:51.240Z,98200.94
2019-01-20T22:38:23.725Z,98200.52
2019-01-20T22:40:56.102Z,98197.45
2019-01-20T22:43:28.478Z,98196.22
2019-01-20T22:46:00.951Z,98194.51
2019-01-20T22:48:33.325Z,98196.56
2019-01-20T22:51:05.817Z,98200.81
2019-01-20T22:53:38.301Z,98197.34
2019-01-20T22:56:10.783Z,98198.23
2019-01-20T22:58:43.167Z,98201.72
2019-01-20T23:01:23.661Z,98204.45
2019-01-20T23:03:56.045Z,98206.03
2019-01-20T23:06:28.652Z,98205.39
2019-01-20T23:09:06.541Z,98198.61
2019-01-20T23:11:35.221Z,98198.50
2019-01-20T23:14:08.084Z,98194.22
2019-01-20T23:16:40.565Z,98193.29
2019-01-20T23:19:13.147Z,98191.47
2019-01-20T23:21:45.536Z,98190.86
2019-01-20T23:24:17.908Z,98193.86
2019-01-20T23:26:50.289Z,98198.62
2019-01-20T23:29:22.670Z,98198.38
2019-01-20T23:31:55.143Z,98199.61
2019-01-20T23:34:27.620Z,98197.95
2019-01-20T23:36:59.999Z,98199.09
2019-01-20T23:39:32.369Z,98196.32
2019-01-20T23:42:04.851Z,98195.24
2019-01-20T23:44:37.327Z,98204.09
2019-01-20T23:47:15.123Z,98201.22
2019-01-20T23:49:43.905Z,98202.34
2019-01-20T23:52:16.389Z,98202.17
2019-01-20T23:54:48.767Z,98195.92
2019-01-20T23:57:21.255Z,98194.41
2019-01-20T23:59:53.732Z,98195.12
